King City, Missouri
Current Conditions -  °F | °C
As of 8:30 AM on Thursday 23 Oct 2014 (Local Time) from KSTJ Reporting Station
Haze Haze  
Wind Chill: 13°   Ceiling: Unl
Heat Index: 13°   Visibility: 6mi
Dew Point: 13°   Wind: 5mph
Humidity: 100%   Direction: 170°S
Pressure: 30.06"   Gusts: NA
Location:  40.05°N, 94.52°W
Report Text: KSTJ 231330Z 17004KT 6SM BR CLR 13/13 A3006 RMK AO2 T01330133
Loading
Personal Weather Stations






























Interactive Weather Map
Tropical Storm Tracking
New forecast layout! Learn more

10-Day Weather Forecast

Advertisements
Track Severe Weather on mobile